sensor_id;sensor_type;location;lat;lon;timestamp;P1;durP1;ratioP1;P2;durP2;ratioP2
65751;SDS011;52486;51.098;13.770;2023-02-03T00:00:36;6.05;;;3.42;;
65751;SDS011;52486;51.098;13.770;2023-02-03T00:03:02;4.22;;;3.38;;
65751;SDS011;52486;51.098;13.770;2023-02-03T00:05:28;5.35;;;3.30;;
65751;SDS011;52486;51.098;13.770;2023-02-03T00:07:55;4.05;;;3.60;;
65751;SDS011;52486;51.098;13.770;2023-02-03T00:10:21;4.63;;;3.30;;
65751;SDS011;52486;51.098;13.770;2023-02-03T00:12:50;3.85;;;3.45;;
65751;SDS011;52486;51.098;13.770;2023-02-03T00:15:20;3.30;;;3.00;;
65751;SDS011;52486;51.098;13.770;2023-02-03T00:17:47;3.83;;;3.00;;
65751;SDS011;52486;51.098;13.770;2023-02-03T00:20:13;3.55;;;3.25;;
65751;SDS011;52486;51.098;13.770;2023-02-03T00:22:39;4.40;;;3.50;;
65751;SDS011;52486;51.098;13.770;2023-02-03T00:25:05;5.03;;;3.33;;
65751;SDS011;52486;51.098;13.770;2023-02-03T00:27:31;4.38;;;3.25;;
65751;SDS011;52486;51.098;13.770;2023-02-03T00:29:57;4.57;;;3.40;;
65751;SDS011;52486;51.098;13.770;2023-02-03T00:32:23;3.92;;;3.25;;
65751;SDS011;52486;51.098;13.770;2023-02-03T00:34:48;4.97;;;3.35;;
65751;SDS011;52486;51.098;13.770;2023-02-03T00:37:14;4.25;;;3.42;;
65751;SDS011;52486;51.098;13.770;2023-02-03T00:39:40;4.45;;;3.13;;
65751;SDS011;52486;51.098;13.770;2023-02-03T00:42:06;4.32;;;3.35;;
65751;SDS011;52486;51.098;13.770;2023-02-03T00:44:31;4.60;;;3.67;;
65751;SDS011;52486;51.098;13.770;2023-02-03T00:46:57;3.63;;;3.20;;
65751;SDS011;52486;51.098;13.770;2023-02-03T00:49:23;4.10;;;3.47;;
65751;SDS011;52486;51.098;13.770;2023-02-03T00:51:49;4.15;;;3.53;;
65751;SDS011;52486;51.098;13.770;2023-02-03T00:54:15;3.85;;;3.40;;
65751;SDS011;52486;51.098;13.770;2023-02-03T00:56:42;5.00;;;3.42;;
65751;SDS011;52486;51.098;13.770;2023-02-03T00:59:08;6.10;;;3.00;;
65751;SDS011;52486;51.098;13.770;2023-02-03T01:01:34;6.03;;;3.40;;
65751;SDS011;52486;51.098;13.770;2023-02-03T01:04:00;3.95;;;3.05;;
65751;SDS011;52486;51.098;13.770;2023-02-03T01:06:26;4.45;;;3.50;;
65751;SDS011;52486;51.098;13.770;2023-02-03T01:08:52;4.40;;;3.67;;
65751;SDS011;52486;51.098;13.770;2023-02-03T01:11:19;4.75;;;3.67;;
65751;SDS011;52486;51.098;13.770;2023-02-03T01:13:49;4.88;;;3.53;;
65751;SDS011;52486;51.098;13.770;2023-02-03T01:16:16;6.57;;;3.28;;
65751;SDS011;52486;51.098;13.770;2023-02-03T01:18:44;3.50;;;3.20;;
65751;SDS011;52486;51.098;13.770;2023-02-03T01:21:11;5.65;;;3.35;;
65751;SDS011;52486;51.098;13.770;2023-02-03T01:23:41;3.78;;;3.33;;
65751;SDS011;52486;51.098;13.770;2023-02-03T01:26:09;6.28;;;3.58;;
65751;SDS011;52486;51.098;13.770;2023-02-03T01:28:36;3.50;;;3.15;;
65751;SDS011;52486;51.098;13.770;2023-02-03T01:33:36;3.58;;;3.15;;
65751;SDS011;52486;51.098;13.770;2023-02-03T01:36:05;3.83;;;3.38;;
65751;SDS011;52486;51.098;13.770;2023-02-03T01:38:34;6.53;;;3.28;;
65751;SDS011;52486;51.098;13.770;2023-02-03T01:41:00;4.15;;;3.40;;
65751;SDS011;52486;51.098;13.770;2023-02-03T01:43:30;5.53;;;3.30;;
65751;SDS011;52486;51.098;13.770;2023-02-03T01:45:58;4.07;;;3.60;;
65751;SDS011;52486;51.098;13.770;2023-02-03T01:48:27;3.58;;;3.28;;
65751;SDS011;52486;51.098;13.770;2023-02-03T01:50:55;4.40;;;3.55;;
65751;SDS011;52486;51.098;13.770;2023-02-03T01:53:20;4.97;;;3.45;;
65751;SDS011;52486;51.098;13.770;2023-02-03T01:55:47;3.50;;;3.20;;
65751;SDS011;52486;51.098;13.770;2023-02-03T02:00:44;3.50;;;3.20;;
65751;SDS011;52486;51.098;13.770;2023-02-03T02:03:11;3.40;;;3.10;;
65751;SDS011;52486;51.098;13.770;2023-02-03T02:05:39;6.57;;;3.10;;
65751;SDS011;52486;51.098;13.770;2023-02-03T02:08:11;3.72;;;3.00;;
65751;SDS011;52486;51.098;13.770;2023-02-03T02:10:38;4.32;;;3.28;;
65751;SDS011;52486;51.098;13.770;2023-02-03T02:13:04;3.80;;;3.42;;
65751;SDS011;52486;51.098;13.770;2023-02-03T02:15:34;3.60;;;2.78;;
65751;SDS011;52486;51.098;13.770;2023-02-03T02:18:19;3.58;;;3.10;;
65751;SDS011;52486;51.098;13.770;2023-02-03T02:29:23;5.03;;;2.85;;
65751;SDS011;52486;51.098;13.770;2023-02-03T02:32:04;3.05;;;2.75;;
65751;SDS011;52486;51.098;13.770;2023-02-03T02:37:16;5.35;;;3.40;;
65751;SDS011;52486;51.098;13.770;2023-02-03T02:44:55;5.47;;;3.50;;
65751;SDS011;52486;51.098;13.770;2023-02-03T02:50:11;3.88;;;3.03;;
65751;SDS011;52486;51.098;13.770;2023-02-03T02:52:43;3.22;;;2.75;;
65751;SDS011;52486;51.098;13.770;2023-02-03T02:55:21;3.58;;;3.00;;
65751;SDS011;52486;51.098;13.770;2023-02-03T02:57:55;3.83;;;3.50;;
65751;SDS011;52486;51.098;13.770;2023-02-03T03:00:24;4.45;;;3.00;;
65751;SDS011;52486;51.098;13.770;2023-02-03T03:02:54;4.13;;;3.65;;
65751;SDS011;52486;51.098;13.770;2023-02-03T03:05:21;4.75;;;3.25;;
65751;SDS011;52486;51.098;13.770;2023-02-03T03:07:57;3.42;;;3.10;;
65751;SDS011;52486;51.098;13.770;2023-02-03T03:10:29;6.20;;;3.67;;
65751;SDS011;52486;51.098;13.770;2023-02-03T03:12:58;3.65;;;3.13;;
65751;SDS011;52486;51.098;13.770;2023-02-03T03:15:29;3.60;;;3.22;;
65751;SDS011;52486;51.098;13.770;2023-02-03T03:17:58;3.47;;;3.17;;
65751;SDS011;52486;51.098;13.770;2023-02-03T03:20:31;4.93;;;3.72;;
65751;SDS011;52486;51.098;13.770;2023-02-03T03:23:00;3.42;;;2.78;;
65751;SDS011;52486;51.098;13.770;2023-02-03T03:25:31;4.05;;;3.25;;
65751;SDS011;52486;51.098;13.770;2023-02-03T03:28:04;4.97;;;3.30;;
65751;SDS011;52486;51.098;13.770;2023-02-03T03:30:35;3.45;;;2.95;;
65751;SDS011;52486;51.098;13.770;2023-02-03T03:33:03;4.13;;;3.47;;
65751;SDS011;52486;51.098;13.770;2023-02-03T03:35:52;3.83;;;3.42;;
65751;SDS011;52486;51.098;13.770;2023-02-03T03:38:27;4.88;;;3.53;;
65751;SDS011;52486;51.098;13.770;2023-02-03T03:41:04;3.42;;;3.13;;
65751;SDS011;52486;51.098;13.770;2023-02-03T03:43:38;6.00;;;3.42;;
65751;SDS011;52486;51.098;13.770;2023-02-03T03:46:14;3.67;;;3.20;;
65751;SDS011;52486;51.098;13.770;2023-02-03T03:48:51;6.18;;;3.20;;
65751;SDS011;52486;51.098;13.770;2023-02-03T03:51:22;4.25;;;3.25;;
65751;SDS011;52486;51.098;13.770;2023-02-03T03:53:53;5.63;;;3.22;;
65751;SDS011;52486;51.098;13.770;2023-02-03T03:56:23;5.20;;;3.80;;
65751;SDS011;52486;51.098;13.770;2023-02-03T03:58:52;4.28;;;3.35;;
65751;SDS011;52486;51.098;13.770;2023-02-03T04:01:19;4.25;;;3.58;;
65751;SDS011;52486;51.098;13.770;2023-02-03T04:03:47;5.95;;;4.00;;
65751;SDS011;52486;51.098;13.770;2023-02-03T04:06:17;4.07;;;3.20;;
65751;SDS011;52486;51.098;13.770;2023-02-03T04:08:43;3.97;;;3.10;;
65751;SDS011;52486;51.098;13.770;2023-02-03T04:11:09;4.25;;;3.35;;
65751;SDS011;52486;51.098;13.770;2023-02-03T04:13:35;4.60;;;3.50;;
65751;SDS011;52486;51.098;13.770;2023-02-03T04:16:01;3.47;;;3.17;;
65751;SDS011;52486;51.098;13.770;2023-02-03T04:18:26;3.80;;;3.40;;
65751;SDS011;52486;51.098;13.770;2023-02-03T04:20:52;3.60;;;3.20;;
65751;SDS011;52486;51.098;13.770;2023-02-03T04:23:17;3.65;;;3.13;;
65751;SDS011;52486;51.098;13.770;2023-02-03T04:25:43;4.63;;;3.20;;
65751;SDS011;52486;51.098;13.770;2023-02-03T04:28:09;3.67;;;3.22;;
65751;SDS011;52486;51.098;13.770;2023-02-03T04:30:34;4.10;;;3.13;;
65751;SDS011;52486;51.098;13.770;2023-02-03T04:33:00;4.45;;;3.28;;
65751;SDS011;52486;51.098;13.770;2023-02-03T04:35:26;3.60;;;2.92;;
65751;SDS011;52486;51.098;13.770;2023-02-03T04:37:52;4.15;;;3.40;;
65751;SDS011;52486;51.098;13.770;2023-02-03T04:40:17;3.65;;;3.03;;
65751;SDS011;52486;51.098;13.770;2023-02-03T04:42:43;3.78;;;3.17;;
65751;SDS011;52486;51.098;13.770;2023-02-03T04:45:10;6.00;;;3.25;;
65751;SDS011;52486;51.098;13.770;2023-02-03T04:47:37;3.53;;;3.20;;
65751;SDS011;52486;51.098;13.770;2023-02-03T04:50:03;3.95;;;3.20;;
65751;SDS011;52486;51.098;13.770;2023-02-03T04:52:29;3.90;;;3.20;;
65751;SDS011;52486;51.098;13.770;2023-02-03T04:54:55;3.53;;;3.22;;
65751;SDS011;52486;51.098;13.770;2023-02-03T04:57:21;4.82;;;2.88;;
65751;SDS011;52486;51.098;13.770;2023-02-03T04:59:47;3.40;;;3.10;;
65751;SDS011;52486;51.098;13.770;2023-02-03T05:02:13;6.88;;;3.05;;
65751;SDS011;52486;51.098;13.770;2023-02-03T05:04:39;3.63;;;3.25;;
65751;SDS011;52486;51.098;13.770;2023-02-03T05:07:05;3.00;;;2.67;;
65751;SDS011;52486;51.098;13.770;2023-02-03T05:09:30;3.03;;;2.72;;
65751;SDS011;52486;51.098;13.770;2023-02-03T05:11:56;3.17;;;2.53;;
65751;SDS011;52486;51.098;13.770;2023-02-03T05:14:22;5.47;;;3.40;;
65751;SDS011;52486;51.098;13.770;2023-02-03T05:16:47;6.38;;;3.47;;
65751;SDS011;52486;51.098;13.770;2023-02-03T05:19:13;4.50;;;3.20;;
65751;SDS011;52486;51.098;13.770;2023-02-03T05:21:39;4.20;;;3.00;;
65751;SDS011;52486;51.098;13.770;2023-02-03T05:24:05;3.92;;;3.30;;
65751;SDS011;52486;51.098;13.770;2023-02-03T05:26:32;3.45;;;3.15;;
65751;SDS011;52486;51.098;13.770;2023-02-03T05:28:59;4.10;;;3.17;;
65751;SDS011;52486;51.098;13.770;2023-02-03T05:31:25;3.30;;;2.83;;
65751;SDS011;52486;51.098;13.770;2023-02-03T05:33:50;4.68;;;3.08;;
65751;SDS011;52486;51.098;13.770;2023-02-03T05:36:16;3.60;;;3.30;;
65751;SDS011;52486;51.098;13.770;2023-02-03T05:38:42;3.83;;;3.45;;
65751;SDS011;52486;51.098;13.770;2023-02-03T05:41:09;4.90;;;3.17;;
65751;SDS011;52486;51.098;13.770;2023-02-03T05:43:54;4.82;;;3.20;;
65751;SDS011;52486;51.098;13.770;2023-02-03T05:46:20;3.38;;;3.08;;
65751;SDS011;52486;51.098;13.770;2023-02-03T05:48:45;3.60;;;3.30;;
65751;SDS011;52486;51.098;13.770;2023-02-03T05:51:11;4.63;;;3.15;;
65751;SDS011;52486;51.098;13.770;2023-02-03T05:53:37;4.00;;;3.38;;
65751;SDS011;52486;51.098;13.770;2023-02-03T05:56:03;4.32;;;3.20;;
65751;SDS011;52486;51.098;13.770;2023-02-03T05:58:28;3.63;;;3.28;;
65751;SDS011;52486;51.098;13.770;2023-02-03T06:00:55;5.65;;;3.25;;
65751;SDS011;52486;51.098;13.770;2023-02-03T06:03:21;4.47;;;3.33;;
65751;SDS011;52486;51.098;13.770;2023-02-03T06:05:47;4.38;;;3.33;;
65751;SDS011;52486;51.098;13.770;2023-02-03T06:08:13;3.15;;;2.72;;
65751;SDS011;52486;51.098;13.770;2023-02-03T06:10:39;4.13;;;3.05;;
65751;SDS011;52486;51.098;13.770;2023-02-03T06:13:12;3.45;;;2.97;;
65751;SDS011;52486;51.098;13.770;2023-02-03T06:15:39;3.85;;;3.45;;
65751;SDS011;52486;51.098;13.770;2023-02-03T06:18:06;4.13;;;3.20;;
65751;SDS011;52486;51.098;13.770;2023-02-03T06:20:32;3.67;;;3.30;;
65751;SDS011;52486;51.098;13.770;2023-02-03T06:22:58;3.65;;;2.70;;
65751;SDS011;52486;51.098;13.770;2023-02-03T06:25:24;3.35;;;3.05;;
65751;SDS011;52486;51.098;13.770;2023-02-03T06:27:50;5.68;;;3.40;;
65751;SDS011;52486;51.098;13.770;2023-02-03T06:30:16;2.53;;;2.20;;
65751;SDS011;52486;51.098;13.770;2023-02-03T06:32:42;3.03;;;2.47;;
65751;SDS011;52486;51.098;13.770;2023-02-03T06:35:08;4.97;;;2.10;;
65751;SDS011;52486;51.098;13.770;2023-02-03T06:37:33;3.55;;;2.65;;
65751;SDS011;52486;51.098;13.770;2023-02-03T06:40:00;3.22;;;2.70;;
65751;SDS011;52486;51.098;13.770;2023-02-03T06:42:26;4.80;;;2.65;;
65751;SDS011;52486;51.098;13.770;2023-02-03T06:44:52;2.90;;;2.60;;
65751;SDS011;52486;51.098;13.770;2023-02-03T06:47:20;2.80;;;2.50;;
65751;SDS011;52486;51.098;13.770;2023-02-03T06:49:45;3.15;;;2.70;;
65751;SDS011;52486;51.098;13.770;2023-02-03T06:52:11;3.10;;;2.80;;
65751;SDS011;52486;51.098;13.770;2023-02-03T06:54:37;3.60;;;3.10;;
65751;SDS011;52486;51.098;13.770;2023-02-03T06:57:03;4.00;;;2.70;;
65751;SDS011;52486;51.098;13.770;2023-02-03T06:59:29;5.25;;;2.78;;
65751;SDS011;52486;51.098;13.770;2023-02-03T07:01:55;3.42;;;3.03;;
65751;SDS011;52486;51.098;13.770;2023-02-03T07:04:21;5.55;;;3.35;;
65751;SDS011;52486;51.098;13.770;2023-02-03T07:06:47;3.60;;;2.83;;
65751;SDS011;52486;51.098;13.770;2023-02-03T07:09:13;4.50;;;2.92;;
65751;SDS011;52486;51.098;13.770;2023-02-03T07:11:39;9.85;;;3.22;;
65751;SDS011;52486;51.098;13.770;2023-02-03T07:14:05;4.22;;;3.50;;
65751;SDS011;52486;51.098;13.770;2023-02-03T07:16:31;9.57;;;4.30;;
65751;SDS011;52486;51.098;13.770;2023-02-03T07:18:58;4.90;;;3.50;;
65751;SDS011;52486;51.098;13.770;2023-02-03T07:21:24;3.80;;;3.13;;
65751;SDS011;52486;51.098;13.770;2023-02-03T07:23:50;5.10;;;3.28;;
65751;SDS011;52486;51.098;13.770;2023-02-03T07:26:16;5.40;;;3.63;;
65751;SDS011;52486;51.098;13.770;2023-02-03T07:28:43;4.38;;;3.05;;
65751;SDS011;52486;51.098;13.770;2023-02-03T07:31:08;6.07;;;3.28;;
65751;SDS011;52486;51.098;13.770;2023-02-03T07:33:34;3.90;;;3.30;;
65751;SDS011;52486;51.098;13.770;2023-02-03T07:36:01;5.03;;;3.10;;
65751;SDS011;52486;51.098;13.770;2023-02-03T07:38:27;3.95;;;3.10;;
65751;SDS011;52486;51.098;13.770;2023-02-03T07:40:53;4.40;;;3.63;;
65751;SDS011;52486;51.098;13.770;2023-02-03T07:43:19;3.55;;;3.25;;
65751;SDS011;52486;51.098;13.770;2023-02-03T07:45:45;6.38;;;3.70;;
65751;SDS011;52486;51.098;13.770;2023-02-03T07:48:11;7.95;;;3.90;;
65751;SDS011;52486;51.098;13.770;2023-02-03T07:50:37;7.82;;;4.00;;
65751;SDS011;52486;51.098;13.770;2023-02-03T07:53:03;4.82;;;4.32;;
65751;SDS011;52486;51.098;13.770;2023-02-03T07:55:30;7.05;;;4.60;;
65751;SDS011;52486;51.098;13.770;2023-02-03T07:57:56;5.75;;;4.40;;
65751;SDS011;52486;51.098;13.770;2023-02-03T08:00:23;7.20;;;4.18;;
65751;SDS011;52486;51.098;13.770;2023-02-03T08:02:49;5.90;;;4.20;;
65751;SDS011;52486;51.098;13.770;2023-02-03T08:05:15;9.93;;;3.90;;
65751;SDS011;52486;51.098;13.770;2023-02-03T08:07:42;4.70;;;3.95;;
65751;SDS011;52486;51.098;13.770;2023-02-03T08:10:08;6.65;;;3.88;;
65751;SDS011;52486;51.098;13.770;2023-02-03T08:12:36;4.05;;;3.63;;
65751;SDS011;52486;51.098;13.770;2023-02-03T08:15:02;10.20;;;3.70;;
65751;SDS011;52486;51.098;13.770;2023-02-03T08:17:28;4.43;;;4.00;;
65751;SDS011;52486;51.098;13.770;2023-02-03T08:19:54;9.88;;;3.75;;
65751;SDS011;52486;51.098;13.770;2023-02-03T08:22:19;9.48;;;3.72;;
65751;SDS011;52486;51.098;13.770;2023-02-03T08:24:45;4.28;;;3.40;;
65751;SDS011;52486;51.098;13.770;2023-02-03T08:27:12;4.60;;;3.65;;
65751;SDS011;52486;51.098;13.770;2023-02-03T08:29:39;4.63;;;3.25;;
65751;SDS011;52486;51.098;13.770;2023-02-03T08:32:08;8.98;;;3.60;;
65751;SDS011;52486;51.098;13.770;2023-02-03T08:34:38;6.68;;;3.25;;
65751;SDS011;52486;51.098;13.770;2023-02-03T08:37:04;7.13;;;3.60;;
65751;SDS011;52486;51.098;13.770;2023-02-03T08:39:31;4.28;;;3.35;;
65751;SDS011;52486;51.098;13.770;2023-02-03T08:41:57;10.35;;;3.33;;
65751;SDS011;52486;51.098;13.770;2023-02-03T08:44:24;7.30;;;4.20;;
65751;SDS011;52486;51.098;13.770;2023-02-03T08:46:50;5.10;;;3.75;;
65751;SDS011;52486;51.098;13.770;2023-02-03T08:49:18;4.75;;;3.10;;
65751;SDS011;52486;51.098;13.770;2023-02-03T08:51:47;6.55;;;3.13;;
65751;SDS011;52486;51.098;13.770;2023-02-03T08:54:14;9.43;;;3.50;;
65751;SDS011;52486;51.098;13.770;2023-02-03T08:56:40;6.43;;;3.33;;
65751;SDS011;52486;51.098;13.770;2023-02-03T08:59:06;9.68;;;3.47;;
65751;SDS011;52486;51.098;13.770;2023-02-03T09:01:32;5.72;;;3.25;;
65751;SDS011;52486;51.098;13.770;2023-02-03T09:03:57;4.60;;;3.13;;
65751;SDS011;52486;51.098;13.770;2023-02-03T09:06:26;5.40;;;3.30;;
65751;SDS011;52486;51.098;13.770;2023-02-03T09:08:53;5.38;;;3.30;;
65751;SDS011;52486;51.098;13.770;2023-02-03T09:11:19;8.82;;;3.08;;
65751;SDS011;52486;51.098;13.770;2023-02-03T09:13:45;4.30;;;2.90;;
65751;SDS011;52486;51.098;13.770;2023-02-03T09:16:12;7.95;;;2.85;;
65751;SDS011;52486;51.098;13.770;2023-02-03T09:18:41;3.58;;;3.05;;
65751;SDS011;52486;51.098;13.770;2023-02-03T09:21:07;7.07;;;2.67;;
65751;SDS011;52486;51.098;13.770;2023-02-03T09:23:38;5.97;;;3.05;;
65751;SDS011;52486;51.098;13.770;2023-02-03T09:26:08;5.25;;;3.08;;
65751;SDS011;52486;51.098;13.770;2023-02-03T09:28:36;9.13;;;3.85;;
65751;SDS011;52486;51.098;13.770;2023-02-03T09:31:12;8.95;;;4.40;;
65751;SDS011;52486;51.098;13.770;2023-02-03T09:33:39;13.30;;;4.78;;
65751;SDS011;52486;51.098;13.770;2023-02-03T09:36:05;8.02;;;4.68;;
65751;SDS011;52486;51.098;13.770;2023-02-03T09:38:34;13.23;;;4.20;;
65751;SDS011;52486;51.098;13.770;2023-02-03T09:46:18;8.80;;;4.40;;
65751;SDS011;52486;51.098;13.770;2023-02-03T09:48:49;6.72;;;4.25;;
65751;SDS011;52486;51.098;13.770;2023-02-03T09:53:59;9.75;;;3.95;;
65751;SDS011;52486;51.098;13.770;2023-02-03T09:56:30;8.68;;;4.20;;
65751;SDS011;52486;51.098;13.770;2023-02-03T09:58:58;10.93;;;4.30;;
65751;SDS011;52486;51.098;13.770;2023-02-03T10:01:27;6.13;;;4.50;;
65751;SDS011;52486;51.098;13.770;2023-02-03T10:04:12;11.15;;;4.20;;
65751;SDS011;52486;51.098;13.770;2023-02-03T10:09:52;8.75;;;4.00;;
65751;SDS011;52486;51.098;13.770;2023-02-03T10:18:10;11.43;;;4.05;;
65751;SDS011;52486;51.098;13.770;2023-02-03T10:20:58;12.80;;;4.30;;
65751;SDS011;52486;51.098;13.770;2023-02-03T10:23:29;6.20;;;3.92;;
65751;SDS011;52486;51.098;13.770;2023-02-03T10:26:01;6.90;;;3.85;;
65751;SDS011;52486;51.098;13.770;2023-02-03T10:29:34;7.75;;;3.85;;
65751;SDS011;52486;51.098;13.770;2023-02-03T10:32:10;9.80;;;4.03;;
65751;SDS011;52486;51.098;13.770;2023-02-03T10:34:36;8.82;;;4.00;;
65751;SDS011;52486;51.098;13.770;2023-02-03T10:37:13;6.50;;;3.53;;
65751;SDS011;52486;51.098;13.770;2023-02-03T10:39:59;10.30;;;4.18;;
65751;SDS011;52486;51.098;13.770;2023-02-03T10:42:26;8.05;;;3.70;;
65751;SDS011;52486;51.098;13.770;2023-02-03T10:45:14;5.60;;;3.58;;
65751;SDS011;52486;51.098;13.770;2023-02-03T10:47:41;9.30;;;4.15;;
65751;SDS011;52486;51.098;13.770;2023-02-03T10:50:23;8.40;;;3.92;;
65751;SDS011;52486;51.098;13.770;2023-02-03T10:55:44;8.75;;;3.53;;
65751;SDS011;52486;51.098;13.770;2023-02-03T10:58:16;8.18;;;3.50;;
65751;SDS011;52486;51.098;13.770;2023-02-03T11:00:54;10.35;;;3.97;;
65751;SDS011;52486;51.098;13.770;2023-02-03T11:03:24;7.45;;;3.72;;
65751;SDS011;52486;51.098;13.770;2023-02-03T11:08:32;7.95;;;3.70;;
65751;SDS011;52486;51.098;13.770;2023-02-03T11:11:07;10.10;;;3.83;;
65751;SDS011;52486;51.098;13.770;2023-02-03T11:13:36;9.82;;;3.47;;
65751;SDS011;52486;51.098;13.770;2023-02-03T11:24:30;9.82;;;4.00;;
65751;SDS011;52486;51.098;13.770;2023-02-03T11:26:38;13.65;;;4.13;;
65751;SDS011;52486;51.098;13.770;2023-02-03T11:29:13;7.78;;;3.45;;
65751;SDS011;52486;51.098;13.770;2023-02-03T11:31:46;9.93;;;4.10;;
65751;SDS011;52486;51.098;13.770;2023-02-03T11:34:16;15.68;;;4.03;;
65751;SDS011;52486;51.098;13.770;2023-02-03T11:36:51;10.30;;;3.63;;
65751;SDS011;52486;51.098;13.770;2023-02-03T11:39:19;10.68;;;3.85;;
65751;SDS011;52486;51.098;13.770;2023-02-03T11:41:50;14.25;;;4.15;;
65751;SDS011;52486;51.098;13.770;2023-02-03T11:44:21;10.80;;;4.63;;
65751;SDS011;52486;51.098;13.770;2023-02-03T11:46:51;11.00;;;3.90;;
65751;SDS011;52486;51.098;13.770;2023-02-03T11:51:54;9.82;;;4.10;;
65751;SDS011;52486;51.098;13.770;2023-02-03T12:06:00;11.50;;;3.42;;
65751;SDS011;52486;51.098;13.770;2023-02-03T12:08:43;10.43;;;4.10;;
65751;SDS011;52486;51.098;13.770;2023-02-03T12:22:15;8.68;;;3.38;;
65751;SDS011;52486;51.098;13.770;2023-02-03T12:30:50;8.90;;;3.53;;
65751;SDS011;52486;51.098;13.770;2023-02-03T12:33:22;7.72;;;3.85;;
65751;SDS011;52486;51.098;13.770;2023-02-03T12:36:07;7.00;;;3.25;;
65751;SDS011;52486;51.098;13.770;2023-02-03T12:38:42;5.75;;;3.17;;
65751;SDS011;52486;51.098;13.770;2023-02-03T12:41:17;7.05;;;3.28;;
65751;SDS011;52486;51.098;13.770;2023-02-03T12:43:49;7.70;;;3.63;;
65751;SDS011;52486;51.098;13.770;2023-02-03T12:46:25;7.90;;;3.75;;
65751;SDS011;52486;51.098;13.770;2023-02-03T12:48:59;8.77;;;3.97;;
65751;SDS011;52486;51.098;13.770;2023-02-03T12:54:26;7.57;;;3.50;;
65751;SDS011;52486;51.098;13.770;2023-02-03T12:56:59;6.50;;;3.35;;
65751;SDS011;52486;51.098;13.770;2023-02-03T12:59:38;9.57;;;3.58;;
65751;SDS011;52486;51.098;13.770;2023-02-03T13:02:14;8.45;;;3.40;;
65751;SDS011;52486;51.098;13.770;2023-02-03T13:04:52;4.03;;;2.87;;
65751;SDS011;52486;51.098;13.770;2023-02-03T13:10:52;5.90;;;3.35;;
65751;SDS011;52486;51.098;13.770;2023-02-03T13:13:41;8.57;;;3.63;;
65751;SDS011;52486;51.098;13.770;2023-02-03T13:16:12;14.07;;;3.67;;
65751;SDS011;52486;51.098;13.770;2023-02-03T13:18:41;7.78;;;3.92;;
65751;SDS011;52486;51.098;13.770;2023-02-03T13:21:11;7.35;;;3.50;;
65751;SDS011;52486;51.098;13.770;2023-02-03T13:23:41;7.30;;;3.78;;
65751;SDS011;52486;51.098;13.770;2023-02-03T13:29:02;9.57;;;3.63;;
65751;SDS011;52486;51.098;13.770;2023-02-03T13:31:43;5.32;;;3.90;;
65751;SDS011;52486;51.098;13.770;2023-02-03T13:34:42;8.18;;;3.38;;
65751;SDS011;52486;51.098;13.770;2023-02-03T13:40:31;7.10;;;3.45;;
65751;SDS011;52486;51.098;13.770;2023-02-03T13:45:44;4.97;;;2.88;;
65751;SDS011;52486;51.098;13.770;2023-02-03T13:50:48;7.60;;;3.40;;
65751;SDS011;52486;51.098;13.770;2023-02-03T13:53:26;9.77;;;3.45;;
65751;SDS011;52486;51.098;13.770;2023-02-03T13:56:02;5.32;;;3.35;;
65751;SDS011;52486;51.098;13.770;2023-02-03T13:58:31;7.85;;;3.42;;
65751;SDS011;52486;51.098;13.770;2023-02-03T14:05:52;6.40;;;3.42;;
65751;SDS011;52486;51.098;13.770;2023-02-03T14:16:50;6.45;;;2.85;;
65751;SDS011;52486;51.098;13.770;2023-02-03T14:21:50;10.55;;;3.40;;
65751;SDS011;52486;51.098;13.770;2023-02-03T14:24:18;9.07;;;3.88;;
65751;SDS011;52486;51.098;13.770;2023-02-03T14:26:46;6.97;;;3.70;;
65751;SDS011;52486;51.098;13.770;2023-02-03T14:29:25;5.10;;;3.70;;
65751;SDS011;52486;51.098;13.770;2023-02-03T14:32:06;4.88;;;3.70;;
65751;SDS011;52486;51.098;13.770;2023-02-03T14:34:40;5.30;;;3.58;;
65751;SDS011;52486;51.098;13.770;2023-02-03T14:40:02;6.95;;;3.67;;
65751;SDS011;52486;51.098;13.770;2023-02-03T14:51:06;5.90;;;3.50;;
65751;SDS011;52486;51.098;13.770;2023-02-03T14:56:35;9.65;;;3.60;;
65751;SDS011;52486;51.098;13.770;2023-02-03T14:59:23;7.20;;;3.53;;
65751;SDS011;52486;51.098;13.770;2023-02-03T15:04:32;8.30;;;3.58;;
65751;SDS011;52486;51.098;13.770;2023-02-03T15:06:58;7.05;;;3.40;;
65751;SDS011;52486;51.098;13.770;2023-02-03T15:12:15;6.15;;;3.55;;
65751;SDS011;52486;51.098;13.770;2023-02-03T15:14:41;6.47;;;3.60;;
65751;SDS011;52486;51.098;13.770;2023-02-03T15:17:11;6.10;;;3.70;;
65751;SDS011;52486;51.098;13.770;2023-02-03T15:19:45;5.43;;;3.38;;
65751;SDS011;52486;51.098;13.770;2023-02-03T15:24:47;4.75;;;3.22;;
65751;SDS011;52486;51.098;13.770;2023-02-03T15:27:21;7.32;;;2.97;;
65751;SDS011;52486;51.098;13.770;2023-02-03T15:29:49;7.32;;;3.20;;
65751;SDS011;52486;51.098;13.770;2023-02-03T15:32:17;5.53;;;3.30;;
65751;SDS011;52486;51.098;13.770;2023-02-03T15:34:50;4.63;;;3.25;;
65751;SDS011;52486;51.098;13.770;2023-02-03T15:37:22;6.20;;;3.25;;
65751;SDS011;52486;51.098;13.770;2023-02-03T15:42:43;5.20;;;3.40;;
65751;SDS011;52486;51.098;13.770;2023-02-03T15:45:27;4.72;;;2.80;;
65751;SDS011;52486;51.098;13.770;2023-02-03T15:48:02;4.40;;;3.20;;
65751;SDS011;52486;51.098;13.770;2023-02-03T15:50:38;6.68;;;2.80;;
65751;SDS011;52486;51.098;13.770;2023-02-03T15:55:42;3.88;;;2.78;;
65751;SDS011;52486;51.098;13.770;2023-02-03T15:58:17;4.85;;;2.72;;
65751;SDS011;52486;51.098;13.770;2023-02-03T16:00:52;5.38;;;3.17;;
65751;SDS011;52486;51.098;13.770;2023-02-03T16:03:27;3.83;;;2.90;;
65751;SDS011;52486;51.098;13.770;2023-02-03T16:06:08;4.45;;;3.03;;
65751;SDS011;52486;51.098;13.770;2023-02-03T16:08:41;10.38;;;3.25;;
65751;SDS011;52486;51.098;13.770;2023-02-03T16:13:49;7.00;;;2.97;;
65751;SDS011;52486;51.098;13.770;2023-02-03T16:16:17;5.68;;;3.10;;
65751;SDS011;52486;51.098;13.770;2023-02-03T16:18:49;6.57;;;3.17;;
65751;SDS011;52486;51.098;13.770;2023-02-03T16:24:26;4.32;;;3.08;;
65751;SDS011;52486;51.098;13.770;2023-02-03T16:29:54;5.88;;;3.25;;
65751;SDS011;52486;51.098;13.770;2023-02-03T16:33:01;5.38;;;3.03;;
65751;SDS011;52486;51.098;13.770;2023-02-03T16:35:46;3.35;;;2.67;;
65751;SDS011;52486;51.098;13.770;2023-02-03T16:38:30;5.50;;;2.85;;
65751;SDS011;52486;51.098;13.770;2023-02-03T16:41:15;6.82;;;3.03;;
65751;SDS011;52486;51.098;13.770;2023-02-03T16:44:00;3.45;;;2.90;;
65751;SDS011;52486;51.098;13.770;2023-02-03T16:46:45;4.03;;;2.90;;
65751;SDS011;52486;51.098;13.770;2023-02-03T16:49:30;3.78;;;3.08;;
65751;SDS011;52486;51.098;13.770;2023-02-03T16:52:14;2.70;;;2.50;;
65751;SDS011;52486;51.098;13.770;2023-02-03T16:54:40;4.97;;;2.97;;
65751;SDS011;52486;51.098;13.770;2023-02-03T16:57:06;3.03;;;2.42;;
65751;SDS011;52486;51.098;13.770;2023-02-03T16:59:32;4.10;;;2.80;;
65751;SDS011;52486;51.098;13.770;2023-02-03T17:01:59;2.92;;;2.45;;
65751;SDS011;52486;51.098;13.770;2023-02-03T17:04:25;4.47;;;2.85;;
65751;SDS011;52486;51.098;13.770;2023-02-03T17:06:50;5.38;;;3.30;;
65751;SDS011;52486;51.098;13.770;2023-02-03T17:09:16;3.92;;;3.00;;
65751;SDS011;52486;51.098;13.770;2023-02-03T17:11:47;4.15;;;2.78;;
65751;SDS011;52486;51.098;13.770;2023-02-03T17:14:13;3.70;;;2.95;;
65751;SDS011;52486;51.098;13.770;2023-02-03T17:16:39;4.28;;;2.88;;
65751;SDS011;52486;51.098;13.770;2023-02-03T17:19:08;5.38;;;2.80;;
65751;SDS011;52486;51.098;13.770;2023-02-03T17:21:34;4.22;;;2.95;;
65751;SDS011;52486;51.098;13.770;2023-02-03T17:24:00;3.10;;;2.65;;